createdAt,value
2018-10-07T00:00:23.325Z,99797.44
2018-10-07T00:02:53.655Z,99797.44
2018-10-07T00:05:24.020Z,99806.61
2018-10-07T00:07:54.415Z,99820.49
2018-10-07T00:10:24.771Z,99822.52
2018-10-07T00:12:55.203Z,99832.67
2018-10-07T00:15:25.558Z,99844.03
2018-10-07T00:17:55.896Z,99852.38
2018-10-07T00:20:26.247Z,99860.95
2018-10-07T00:22:56.561Z,99862.97
2018-10-07T00:25:26.907Z,99864.77
2018-10-07T00:27:57.222Z,99872.74
2018-10-07T00:30:27.699Z,99884.22
2018-10-07T00:32:58.016Z,99889.06
2018-10-07T00:35:28.446Z,99892.67
2018-10-07T00:37:58.832Z,99897.51
2018-10-07T00:40:29.165Z,99888.68
2018-10-07T00:42:59.529Z,99886.41
2018-10-07T00:45:30.863Z,99897.98
2018-10-07T00:48:01.419Z,99901.37
2018-10-07T00:50:31.741Z,99898.58
2018-10-07T00:53:02.091Z,99904.36
2018-10-07T00:55:32.685Z,99910.13
2018-10-07T00:58:03.072Z,99903.49
2018-10-07T01:00:33.436Z,99910.98
2018-10-07T01:03:03.764Z,99911.46
2018-10-07T01:05:34.067Z,99922.97
2018-10-07T01:08:04.432Z,99926.34
2018-10-07T01:10:34.789Z,99929.20
2018-10-07T01:13:05.129Z,99928.38
2018-10-07T01:15:35.439Z,99932.95
2018-10-07T01:18:05.812Z,99934.64
2018-10-07T01:20:36.181Z,99928.97
2018-10-07T01:23:07.055Z,99941.75
2018-10-07T01:25:37.435Z,99952.64
2018-10-07T01:28:07.773Z,99954.56
2018-10-07T01:30:38.142Z,99960.08
2018-10-07T01:33:08.517Z,99966.73
2018-10-07T01:35:38.890Z,99968.44
2018-10-07T01:38:09.249Z,99981.84
2018-10-07T01:40:39.612Z,99982.44
2018-10-07T01:43:09.896Z,99991.73
2018-10-07T01:45:40.251Z,99995.06
2018-10-07T01:48:10.533Z,99999.17
2018-10-07T01:50:40.924Z,100000.77
2018-10-07T01:53:11.351Z,100005.69
2018-10-07T01:55:41.694Z,100011.66
2018-10-07T01:58:12.044Z,100003.03
2018-10-07T02:00:42.373Z,100004.22
2018-10-07T02:03:12.648Z,100008.81
2018-10-07T02:05:43.038Z,100012.30
2018-10-07T02:08:13.381Z,100019.41
2018-10-07T02:10:43.682Z,100020.16
2018-10-07T02:13:14.010Z,100021.86
2018-10-07T02:15:44.384Z,100028.27
2018-10-07T02:18:14.727Z,100023.34
2018-10-07T02:20:45.138Z,100023.22
2018-10-07T02:23:15.499Z,100032.64
2018-10-07T02:25:45.859Z,100037.48
2018-10-07T02:28:16.229Z,100031.08
2018-10-07T02:30:46.543Z,100029.66
2018-10-07T02:33:16.962Z,100034.32
2018-10-07T02:35:47.293Z,100029.33
2018-10-07T02:38:17.623Z,100031.72
2018-10-07T02:40:47.875Z,100027.65
2018-10-07T02:43:18.253Z,100025.31
2018-10-07T02:45:48.558Z,100024.34
2018-10-07T02:48:18.935Z,100025.66
2018-10-07T02:50:49.295Z,100033.16
2018-10-07T02:53:19.659Z,100028.64
2018-10-07T02:55:50.224Z,100034.49
2018-10-07T02:58:20.870Z,100027.58
2018-10-07T03:00:51.212Z,100027.43
2018-10-07T03:03:21.629Z,100025.48
2018-10-07T03:05:51.977Z,100035.83
2018-10-07T03:08:22.344Z,100036.84
2018-10-07T03:10:52.694Z,100029.62
2018-10-07T03:13:23.068Z,100029.94
2018-10-07T03:15:53.404Z,100026.81
2018-10-07T03:18:23.753Z,100032.80
2018-10-07T03:20:54.078Z,100031.56
2018-10-07T03:23:24.387Z,100036.16
2018-10-07T03:25:54.747Z,100044.45
2018-10-07T03:28:25.047Z,100042.58
2018-10-07T03:30:55.496Z,100045.61
2018-10-07T03:33:25.810Z,100052.88
2018-10-07T03:35:56.098Z,100059.03
2018-10-07T03:38:26.440Z,100061.02
2018-10-07T03:40:57.091Z,100072.99
2018-10-07T03:43:27.454Z,100072.08
2018-10-07T03:45:57.776Z,100074.45
2018-10-07T03:48:28.151Z,100082.00
2018-10-07T03:50:58.532Z,100095.53
2018-10-07T03:53:28.800Z,100098.02
2018-10-07T03:55:59.193Z,100099.94
2018-10-07T03:58:29.512Z,100098.69
2018-10-07T04:00:59.943Z,100107.12
2018-10-07T04:03:30.342Z,100108.06
2018-10-07T04:06:00.671Z,100101.83
2018-10-07T04:08:31.000Z,100111.28
2018-10-07T04:11:01.334Z,100123.20
2018-10-07T04:13:31.702Z,100117.62
2018-10-07T04:16:02.005Z,100126.42
2018-10-07T04:18:32.349Z,100133.61
2018-10-07T04:21:02.691Z,100131.43
2018-10-07T04:23:33.005Z,100145.39
2018-10-07T04:26:03.301Z,100155.16
2018-10-07T04:28:33.648Z,100164.12
2018-10-07T04:31:03.927Z,100181.63
2018-10-07T04:33:34.525Z,100196.93
2018-10-07T04:36:04.859Z,100205.73
2018-10-07T04:38:35.219Z,100200.88
2018-10-07T04:41:05.530Z,100202.83
2018-10-07T04:43:35.867Z,100203.92
2018-10-07T04:46:06.512Z,100208.67
2018-10-07T04:48:36.808Z,100207.65
2018-10-07T04:51:07.458Z,100220.33
2018-10-07T04:53:37.899Z,100212.39
2018-10-07T04:56:08.267Z,100201.33
2018-10-07T04:58:38.608Z,100199.95
2018-10-07T05:01:08.963Z,100206.82
2018-10-07T05:03:39.318Z,100213.33
2018-10-07T05:06:09.739Z,100221.54
2018-10-07T05:08:40.255Z,100223.50
2018-10-07T05:11:10.786Z,100247.63
2018-10-07T05:13:48.911Z,100243.27
2018-10-07T05:16:35.356Z,100242.95
2018-10-07T05:19:06.267Z,100251.90
2018-10-07T05:21:36.613Z,100249.65
2018-10-07T05:24:07.027Z,100265.84
2018-10-07T05:26:37.431Z,100284.11
2018-10-07T05:29:07.762Z,100292.86
2018-10-07T05:31:38.100Z,100293.10
2018-10-07T05:34:08.485Z,100300.25
2018-10-07T05:36:38.829Z,100295.59
2018-10-07T05:39:11.927Z,100300.71
2018-10-07T05:41:42.232Z,100309.59
2018-10-07T05:44:12.589Z,100305.24
2018-10-07T05:46:42.877Z,100325.44
2018-10-07T05:49:13.307Z,100333.45
2018-10-07T05:51:43.560Z,100340.66
2018-10-07T05:54:13.935Z,100341.98
2018-10-07T05:56:44.271Z,100349.67
2018-10-07T05:59:14.795Z,100360.47
2018-10-07T06:01:46.179Z,100363.34
2018-10-07T06:04:24.844Z,100360.16
2018-10-07T06:06:57.559Z,100369.34
2018-10-07T06:09:33.732Z,100376.62
2018-10-07T06:12:04.239Z,100380.58
2018-10-07T06:14:51.384Z,100374.12
2018-10-07T06:17:21.710Z,100371.62
2018-10-07T06:19:52.115Z,100369.48
2018-10-07T06:22:22.848Z,100376.86
2018-10-07T06:24:53.273Z,100390.47
2018-10-07T06:27:23.693Z,100396.74
2018-10-07T06:29:54.104Z,100402.48
2018-10-07T06:32:24.464Z,100420.95
2018-10-07T06:34:54.805Z,100430.34
2018-10-07T06:37:25.107Z,100435.03
2018-10-07T06:39:55.545Z,100442.55
2018-10-07T06:42:25.923Z,100436.63
2018-10-07T06:44:56.290Z,100459.93
2018-10-07T06:47:26.644Z,100461.33
2018-10-07T06:49:57.065Z,100469.84
2018-10-07T06:52:27.408Z,100472.48
2018-10-07T06:54:57.791Z,100481.19
2018-10-07T06:57:28.369Z,100500.98
2018-10-07T06:59:58.969Z,100528.45
2018-10-07T07:02:29.507Z,100533.48
2018-10-07T07:04:59.817Z,100531.12
2018-10-07T07:07:30.167Z,100520.31
2018-10-07T07:10:00.523Z,100526.59
2018-10-07T07:12:45.608Z,100543.09
2018-10-07T07:15:15.950Z,100558.73
2018-10-07T07:17:46.336Z,100560.34
2018-10-07T07:20:16.715Z,100569.37
2018-10-07T07:22:47.027Z,100571.85
2018-10-07T07:25:17.356Z,100578.69
2018-10-07T07:27:47.727Z,100582.78
2018-10-07T07:30:18.038Z,100585.38
2018-10-07T07:32:48.356Z,100607.82
2018-10-07T07:35:18.756Z,100619.05
2018-10-07T07:37:49.218Z,100615.95
2018-10-07T07:40:19.530Z,100609.97
2018-10-07T07:42:49.933Z,100607.04
2018-10-07T07:45:20.295Z,100609.77
2018-10-07T07:47:50.662Z,100611.25
2018-10-07T07:50:20.947Z,100608.88
2018-10-07T07:52:51.483Z,100615.52
2018-10-07T07:55:21.788Z,100620.45
2018-10-07T07:57:52.141Z,100615.76
2018-10-07T08:00:22.457Z,100611.05
2018-10-07T08:02:52.775Z,100609.05
2018-10-07T08:05:23.127Z,100604.96
2018-10-07T08:07:53.564Z,100609.97
2018-10-07T08:10:23.894Z,100608.30
2018-10-07T08:12:54.271Z,100617.47
2018-10-07T08:15:24.678Z,100618.51
2018-10-07T08:17:55.138Z,100625.19
2018-10-07T08:20:25.326Z,100618.62
2018-10-07T08:22:55.623Z,100618.45
2018-10-07T08:25:25.878Z,100615.45
2018-10-07T08:27:56.276Z,100617.49
2018-10-07T08:30:26.595Z,100624.05
2018-10-07T08:32:56.954Z,100610.64
2018-10-07T08:35:27.261Z,100610.13
2018-10-07T08:37:57.602Z,100626.27
2018-10-07T08:40:27.922Z,100630.56
2018-10-07T08:42:58.243Z,100638.47
2018-10-07T08:45:28.584Z,100637.52
2018-10-07T08:47:58.975Z,100622.20
2018-10-07T08:50:29.336Z,100638.93
2018-10-07T08:52:59.659Z,100643.77
2018-10-07T08:55:29.963Z,100639.52
2018-10-07T08:58:00.283Z,100647.47
2018-10-07T09:00:30.688Z,100652.56
2018-10-07T09:03:01.050Z,100653.55
2018-10-07T09:05:31.466Z,100655.69
2018-10-07T09:08:01.916Z,100667.77
2018-10-07T09:10:32.251Z,100673.80
2018-10-07T09:13:02.634Z,100685.53
2018-10-07T09:15:33.046Z,100680.10
2018-10-07T09:18:03.385Z,100681.16
2018-10-07T09:20:33.763Z,100687.63
2018-10-07T09:23:04.175Z,100690.27
2018-10-07T09:25:34.643Z,100687.56
2018-10-07T09:28:05.125Z,100681.01
2018-10-07T09:30:37.287Z,100680.83
2018-10-07T09:33:07.546Z,100686.76
2018-10-07T09:35:37.939Z,100686.44
2018-10-07T09:38:08.319Z,100679.41
2018-10-07T09:40:38.679Z,100679.45
2018-10-07T09:43:08.952Z,100677.91
2018-10-07T09:45:39.265Z,100676.46
2018-10-07T09:48:09.722Z,100675.67
2018-10-07T09:50:40.094Z,100678.33
2018-10-07T09:53:10.478Z,100680.69
2018-10-07T09:55:40.833Z,100684.87
2018-10-07T09:58:11.253Z,100684.21
2018-10-07T10:00:42.343Z,100690.95
2018-10-07T10:03:12.963Z,100686.45
2018-10-07T10:05:43.367Z,100686.03
2018-10-07T10:08:13.664Z,100698.31
2018-10-07T10:10:44.004Z,100693.98
2018-10-07T10:13:14.379Z,100697.67
2018-10-07T10:15:44.671Z,100689.86
2018-10-07T10:18:51.201Z,100697.00
2018-10-07T10:21:38.776Z,100704.08
2018-10-07T10:27:26.243Z,100690.91
2018-10-07T10:30:07.941Z,100711.09
2018-10-07T10:32:55.003Z,100709.23
2018-10-07T10:35:38.891Z,100713.59
2018-10-07T10:38:25.598Z,100706.52
2018-10-07T10:41:11.484Z,100716.25
2018-10-07T10:43:57.210Z,100715.42
2018-10-07T10:46:39.293Z,100711.78
2018-10-07T10:49:21.022Z,100709.62
2018-10-07T10:52:20.845Z,100714.02
2018-10-07T10:54:58.861Z,100714.91
2018-10-07T10:57:41.772Z,100717.92
2018-10-07T11:00:50.939Z,100725.63
2018-10-07T11:04:33.300Z,100723.12
2018-10-07T11:07:25.180Z,100724.41
2018-10-07T11:10:11.353Z,100726.39
2018-10-07T11:12:55.931Z,100733.95
2018-10-07T11:15:39.856Z,100750.69
2018-10-07T11:19:29.666Z,100752.09
2018-10-07T11:22:17.084Z,100746.06
2018-10-07T11:26:04.848Z,100738.14
2018-10-07T11:31:04.131Z,100744.58
2018-10-07T11:34:16.277Z,100746.23
2018-10-07T11:37:23.908Z,100742.81
2018-10-07T11:40:11.266Z,100743.52
2018-10-07T11:42:50.062Z,100743.78
2018-10-07T11:45:31.870Z,100738.28
2018-10-07T11:49:15.199Z,100734.72
2018-10-07T11:51:58.847Z,100727.26
2018-10-07T11:55:02.095Z,100721.87
2018-10-07T11:57:32.397Z,100721.87
2018-10-07T12:00:03.236Z,100724.83
2018-10-07T12:02:33.565Z,100718.23
2018-10-07T12:05:03.911Z,100709.85
2018-10-07T12:07:34.304Z,100698.33
2018-10-07T12:10:04.795Z,100702.52
2018-10-07T12:12:35.076Z,100707.78
2018-10-07T12:15:05.651Z,100708.94
2018-10-07T12:17:36.032Z,100708.30
2018-10-07T12:20:06.663Z,100704.70
2018-10-07T12:22:36.985Z,100708.20
2018-10-07T12:25:07.394Z,100718.40
2018-10-07T12:27:37.731Z,100712.80
2018-10-07T12:30:08.182Z,100711.35
2018-10-07T12:32:38.556Z,100712.20
2018-10-07T12:35:08.967Z,100719.64
2018-10-07T12:37:39.293Z,100714.19
2018-10-07T12:40:09.765Z,100713.42
2018-10-07T12:42:40.116Z,100709.78
2018-10-07T12:45:10.484Z,100703.08
2018-10-07T12:47:40.853Z,100704.59
2018-10-07T12:50:11.187Z,100700.06
2018-10-07T12:52:42.363Z,100693.94
2018-10-07T12:55:12.676Z,100696.40
2018-10-07T12:57:43.046Z,100704.45
2018-10-07T13:00:13.388Z,100710.63
2018-10-07T13:02:43.729Z,100718.48
2018-10-07T13:05:14.043Z,100721.25
2018-10-07T13:07:44.380Z,100717.96
2018-10-07T13:10:14.737Z,100716.58
2018-10-07T13:12:45.052Z,100720.40
2018-10-07T13:15:15.466Z,100718.78
2018-10-07T13:17:45.812Z,100721.25
2018-10-07T13:20:16.173Z,100714.86
2018-10-07T13:22:46.545Z,100708.75
2018-10-07T13:25:16.926Z,100709.25
2018-10-07T13:27:47.283Z,100710.66
2018-10-07T13:30:17.640Z,100712.53
2018-10-07T13:32:47.945Z,100716.28
2018-10-07T13:35:18.288Z,100719.54
2018-10-07T13:37:48.598Z,100714.23
2018-10-07T13:40:18.923Z,100719.36
2018-10-07T13:42:49.231Z,100710.73
2018-10-07T13:45:19.588Z,100713.94
2018-10-07T13:47:49.974Z,100725.75
2018-10-07T13:50:20.272Z,100729.06
2018-10-07T13:52:50.559Z,100732.98
2018-10-07T13:55:20.905Z,100724.65
2018-10-07T13:57:51.231Z,100736.17
2018-10-07T14:00:21.513Z,100733.38
2018-10-07T14:02:51.884Z,100739.75
2018-10-07T14:07:59.860Z,100746.05
2018-10-07T14:10:30.157Z,100738.97
2018-10-07T14:13:00.459Z,100746.86
2018-10-07T14:15:30.780Z,100742.18
2018-10-07T14:18:01.049Z,100747.50
2018-10-07T14:20:31.407Z,100753.06
2018-10-07T14:23:01.781Z,100755.58
2018-10-07T14:25:32.166Z,100759.33
2018-10-07T14:28:02.531Z,100766.58
2018-10-07T14:30:32.875Z,100766.20
2018-10-07T14:33:03.212Z,100774.78
2018-10-07T14:35:33.569Z,100779.77
2018-10-07T14:38:03.952Z,100772.66
2018-10-07T14:40:34.224Z,100771.70
2018-10-07T14:43:04.630Z,100773.47
2018-10-07T14:45:34.936Z,100773.05
2018-10-07T14:48:05.259Z,100769.52
2018-10-07T14:50:35.619Z,100768.73
2018-10-07T14:53:06.188Z,100770.27
2018-10-07T14:55:36.518Z,100770.60
2018-10-07T14:58:07.284Z,100768.91
2018-10-07T15:00:37.712Z,100767.03
2018-10-07T15:03:08.055Z,100774.38
2018-10-07T15:05:38.355Z,100777.25
2018-10-07T15:08:08.698Z,100772.91
2018-10-07T15:10:39.049Z,100772.36
2018-10-07T15:13:09.380Z,100774.10
2018-10-07T15:15:39.704Z,100782.67
2018-10-07T15:18:10.001Z,100778.55
2018-10-07T15:20:40.343Z,100784.02
2018-10-07T15:23:10.622Z,100781.52
2018-10-07T15:25:40.930Z,100780.17
2018-10-07T15:28:11.279Z,100793.86
2018-10-07T15:30:41.613Z,100792.55
2018-10-07T15:33:11.932Z,100791.05
2018-10-07T15:35:42.321Z,100788.64
2018-10-07T15:38:12.670Z,100794.73
2018-10-07T15:40:42.984Z,100796.48
2018-10-07T15:43:13.362Z,100791.48
2018-10-07T15:45:43.779Z,100793.72
2018-10-07T15:48:14.128Z,100799.97
2018-10-07T15:50:44.447Z,100790.34
2018-10-07T15:53:14.806Z,100792.61
2018-10-07T15:55:45.126Z,100780.63
2018-10-07T15:58:15.464Z,100785.45
2018-10-07T16:00:45.781Z,100783.28
2018-10-07T16:03:16.095Z,100782.56
2018-10-07T16:05:46.465Z,100780.55
2018-10-07T16:08:16.865Z,100781.02
2018-10-07T16:10:47.276Z,100781.20
2018-10-07T16:13:17.587Z,100789.08
2018-10-07T16:15:47.897Z,100792.20
2018-10-07T16:18:18.291Z,100792.23
2018-10-07T16:20:48.614Z,100804.31
2018-10-07T16:23:19.123Z,100804.73
2018-10-07T16:25:49.580Z,100804.03
2018-10-07T16:28:19.992Z,100806.78
2018-10-07T16:30:50.662Z,100815.00
2018-10-07T16:33:21.151Z,100817.33
2018-10-07T16:35:51.541Z,100815.63
2018-10-07T16:38:21.901Z,100818.51
2018-10-07T16:40:52.323Z,100821.06
2018-10-07T16:43:22.688Z,100821.55
2018-10-07T16:45:53.049Z,100819.34
2018-10-07T16:48:23.396Z,100821.48
2018-10-07T16:50:53.743Z,100826.11
2018-10-07T16:53:24.116Z,100833.97
2018-10-07T16:55:54.446Z,100835.81
2018-10-07T16:58:24.787Z,100827.44
2018-10-07T17:00:55.128Z,100826.34
2018-10-07T17:03:25.477Z,100826.47
2018-10-07T17:05:55.860Z,100829.04
2018-10-07T17:08:26.184Z,100835.14
2018-10-07T17:10:56.504Z,100831.67
2018-10-07T17:13:26.917Z,100830.69
2018-10-07T17:15:57.193Z,100835.73
2018-10-07T17:18:27.519Z,100842.72
2018-10-07T17:20:57.917Z,100850.16
2018-10-07T17:23:28.210Z,100843.80
2018-10-07T17:25:58.549Z,100849.60
2018-10-07T17:28:28.849Z,100853.52
2018-10-07T17:30:59.194Z,100853.59
2018-10-07T17:33:29.563Z,100853.59
2018-10-07T17:36:00.628Z,100852.23
2018-10-07T17:38:30.995Z,100853.70
2018-10-07T17:41:01.352Z,100860.44
2018-10-07T17:43:31.669Z,100867.30
2018-10-07T17:46:02.055Z,100870.39
2018-10-07T17:48:32.422Z,100877.30
2018-10-07T17:51:02.700Z,100873.73
2018-10-07T17:53:32.995Z,100880.27
2018-10-07T17:56:03.349Z,100887.13
2018-10-07T17:58:33.666Z,100893.06
2018-10-07T18:01:04.039Z,100895.06
2018-10-07T18:03:34.395Z,100896.70
2018-10-07T18:06:04.735Z,100900.90
2018-10-07T18:08:35.117Z,100903.81
2018-10-07T18:11:05.541Z,100902.80
2018-10-07T18:14:06.549Z,100907.94
2018-10-07T18:16:36.906Z,100910.02
2018-10-07T18:19:07.320Z,100901.35
2018-10-07T18:21:37.681Z,100907.81
2018-10-07T18:24:08.064Z,100909.81
2018-10-07T18:26:38.430Z,100915.45
2018-10-07T18:29:08.837Z,100917.80
2018-10-07T18:31:39.179Z,100906.16
2018-10-07T18:34:09.548Z,100912.52
2018-10-07T18:36:39.957Z,100922.16
2018-10-07T18:39:10.278Z,100923.69
2018-10-07T18:41:40.980Z,100927.91
2018-10-07T18:44:11.333Z,100928.95
2018-10-07T18:46:41.669Z,100934.06
2018-10-07T18:49:12.075Z,100925.39
2018-10-07T18:51:42.482Z,100923.81
2018-10-07T18:54:12.836Z,100926.13
2018-10-07T18:56:43.154Z,100927.98
2018-10-07T18:59:13.540Z,100929.96
2018-10-07T19:01:43.890Z,100933.62
2018-10-07T19:04:14.896Z,100926.27
2018-10-07T19:06:45.560Z,100934.07
2018-10-07T19:09:15.909Z,100932.41
2018-10-07T19:11:46.303Z,100927.81
2018-10-07T19:14:16.678Z,100931.82
2018-10-07T19:16:46.973Z,100932.43
2018-10-07T19:19:17.336Z,100939.45
2018-10-07T19:21:47.632Z,100940.48
2018-10-07T19:24:17.995Z,100942.00
2018-10-07T19:26:48.317Z,100930.78
2018-10-07T19:29:18.633Z,100934.26
2018-10-07T19:31:48.987Z,100940.03
2018-10-07T19:34:19.344Z,100940.08
2018-10-07T19:36:49.676Z,100936.04
2018-10-07T19:39:20.060Z,100935.25
2018-10-07T19:41:50.390Z,100938.16
2018-10-07T19:44:20.765Z,100936.30
2018-10-07T19:46:51.079Z,100938.49
2018-10-07T19:49:21.384Z,100939.40
2018-10-07T19:51:51.728Z,100942.68
2018-10-07T19:54:22.165Z,100934.08
2018-10-07T19:56:52.507Z,100925.95
2018-10-07T19:59:22.965Z,100923.95
2018-10-07T20:01:53.279Z,100921.91
2018-10-07T20:04:23.651Z,100926.14
2018-10-07T20:06:53.977Z,100925.88
2018-10-07T20:09:24.286Z,100925.10
2018-10-07T20:11:54.586Z,100928.92
2018-10-07T20:14:24.962Z,100929.52
2018-10-07T20:16:55.272Z,100935.05
2018-10-07T20:19:25.725Z,100932.32
2018-10-07T20:21:55.960Z,100937.59
2018-10-07T20:24:26.287Z,100936.25
2018-10-07T20:26:56.691Z,100934.38
2018-10-07T20:29:27.025Z,100929.55
2018-10-07T20:31:57.304Z,100936.42
2018-10-07T20:34:27.651Z,100941.08
2018-10-07T20:36:58.077Z,100939.48
2018-10-07T20:39:28.371Z,100941.66
2018-10-07T20:41:58.719Z,100939.13
2018-10-07T20:44:29.070Z,100938.43
2018-10-07T20:46:59.380Z,100944.88
2018-10-07T20:49:29.712Z,100936.27
2018-10-07T20:52:00.106Z,100940.39
2018-10-07T20:54:30.518Z,100935.66
2018-10-07T20:57:01.199Z,100940.78
2018-10-07T20:59:31.475Z,100937.51
2018-10-07T21:02:01.817Z,100938.05
2018-10-07T21:04:32.240Z,100941.27
2018-10-07T21:07:02.614Z,100939.50
2018-10-07T21:09:32.959Z,100937.55
2018-10-07T21:12:03.321Z,100935.91
2018-10-07T21:14:33.751Z,100930.80
2018-10-07T21:17:04.416Z,100934.00
2018-10-07T21:19:34.840Z,100936.64
2018-10-07T21:22:05.195Z,100933.13
2018-10-07T21:24:35.584Z,100931.87
2018-10-07T21:27:06.037Z,100933.30
2018-10-07T21:29:36.483Z,100927.73
2018-10-07T21:32:06.887Z,100927.89
2018-10-07T21:34:37.226Z,100923.64
2018-10-07T21:37:07.889Z,100925.56
2018-10-07T21:39:38.238Z,100917.79
2018-10-07T21:42:09.056Z,100920.94
2018-10-07T21:44:39.777Z,100925.88
2018-10-07T21:47:10.383Z,100925.06
2018-10-07T21:49:41.112Z,100921.98
2018-10-07T21:52:11.886Z,100918.70
2018-10-07T21:54:42.543Z,100921.84
2018-10-07T21:57:13.941Z,100923.25
2018-10-07T21:59:44.706Z,100923.78
2018-10-07T22:02:15.370Z,100921.66
2018-10-07T22:04:46.060Z,100919.90
2018-10-07T22:07:19.909Z,100919.63
2018-10-07T22:09:50.688Z,100921.66
2018-10-07T22:12:21.340Z,100920.07
2018-10-07T22:14:51.965Z,100916.24
2018-10-07T22:17:22.603Z,100912.17
2018-10-07T22:19:53.255Z,100907.84
2018-10-07T22:22:23.943Z,100907.56
2018-10-07T22:24:54.559Z,100906.52
2018-10-07T22:27:25.230Z,100909.69
2018-10-07T22:29:55.871Z,100912.44
2018-10-07T22:32:26.524Z,100906.91
2018-10-07T22:34:57.139Z,100907.91
2018-10-07T22:37:27.761Z,100918.22
2018-10-07T22:39:58.367Z,100919.77
2018-10-07T22:42:29.048Z,100918.62
2018-10-07T22:44:59.637Z,100919.20
2018-10-07T22:47:30.279Z,100917.23
2018-10-07T22:50:00.936Z,100917.05
2018-10-07T22:52:31.549Z,100916.56
2018-10-07T22:55:02.180Z,100912.28
2018-10-07T22:57:32.795Z,100909.68
2018-10-07T23:00:03.434Z,100906.82
2018-10-07T23:02:34.080Z,100906.95
2018-10-07T23:05:05.500Z,100914.14
2018-10-07T23:07:36.328Z,100909.41
2018-10-07T23:10:07.249Z,100912.14
2018-10-07T23:12:37.925Z,100910.04
2018-10-07T23:15:08.626Z,100909.20
2018-10-07T23:17:39.252Z,100907.15
2018-10-07T23:20:10.005Z,100912.03
2018-10-07T23:22:40.972Z,100906.46
2018-10-07T23:25:11.663Z,100903.02
2018-10-07T23:27:42.282Z,100902.66
2018-10-07T23:30:12.913Z,100905.03
2018-10-07T23:32:43.527Z,100906.53
2018-10-07T23:35:14.246Z,100904.40
2018-10-07T23:37:44.871Z,100908.86
2018-10-07T23:40:15.583Z,100910.22
2018-10-07T23:42:46.212Z,100906.41
2018-10-07T23:45:16.856Z,100905.59
2018-10-07T23:47:47.544Z,100906.53
2018-10-07T23:50:18.212Z,100913.22
2018-10-07T23:52:48.899Z,100911.09
2018-10-07T23:55:19.521Z,100913.27
2018-10-07T23:57:50.204Z,100911.16
